EW8345 Weather Reports


time (UTC)temp
F
wind
direction
speed
knots
gust
knots
rain 1hr
in
rain 24hr
in
rain mn
in
humidity
%
barometer
mb
20260508043018 41 306 1.7 7.0 0.00 0.06 0.06 58 1021.0
20260508041515 42 306 4.3 8.7 0.00 0.06 0.06 57 1020.9
20260508040015 42 304 2.6 7.0 0.00 0.06 0.06 56 1020.8
20260508034515 42 296 5.2 13.0 0.00 0.06 0.06 56 1020.7
20260508033014 42 293 4.3 11.3 0.00 0.06 0.06 56 1020.6
20260508031515 43 294 7.0 13.9 0.00 0.06 0.06 55 1020.5
20260508030009 43 294 7.0 13.0 0.00 0.06 0.06 54 1020.4
20260508024510 44 281 8.7 13.9 0.00 0.06 0.06 52 1020.3
20260508023056 45 309 7.8 21.7 0.00 0.06 0.06 50 1020.1
20260508021556 45 337 7.0 15.6 0.00 0.06 0.06 49 1020.0
20260508020056 45 302 7.0 20.0 0.00 0.07 0.06 49 1019.8
20260508014555 45 311 7.0 20.0 0.00 0.07 0.06 49 1019.6
20260508013054 46 284 5.2 10.4 0.00 0.07 0.06 47 1019.6
20260508011605 46 293 10.4 17.4 0.00 0.07 0.06 46 1019.5
20260508010054 46 292 4.3 16.5 0.00 0.08 0.06 46 1019.3
20260508004555 47 267 7.0 14.8 0.00 0.08 0.06 46 1019.3
20260508003052 47 274 9.6 16.5 0.00 0.08 0.06 46 1019.2
20260508001552 47 269 5.2 11.3 0.00 0.08 0.06 47 1019.3
20260508000053 46 296 8.7 13.0 0.00 0.14 0.06 48 1019.5
20260507234600 47 281 7.8 15.6 0.00 0.14 0.06 47 1019.3
20260507233048 50 294 6.1 10.4 0.00 0.14 0.06 47 1019.4
20260507231551 49 286 5.2 11.3 0.00 0.14 0.06 49 1019.6
20260507230050 47 296 5.2 13.9 0.00 0.19 0.06 51 1019.6
20260507224548 51 297 6.1 14.8 0.00 0.19 0.06 46 1019.8
20260507223042 47 291 5.2 12.2 0.00 0.19 0.06 52 1019.9
20260507221541 47 283 5.2 10.4 0.00 0.19 0.06 51 1019.9
20260507220038 48 277 5.2 14.8 0.00 0.26 0.06 50 1020.1
20260507214537 49 298 7.8 16.5 0.00 0.26 0.06 48 1020.3
20260507213035 50 350 7.0 13.0 0.00 0.26 0.06 50 1020.4
20260507211535 49 298 7.8 13.0 0.00 0.26 0.06 51 1020.6
20260507210034 49 328 8.7 13.0 0.00 0.37 0.06 48 1020.5
20260507204530 48 298 7.8 15.6 0.00 0.37 0.06 49 1020.8
20260507203029 48 293 7.8 14.8 0.00 0.37 0.06 47 1020.8
20260507201527 47 295 7.8 17.4 0.00 0.37 0.06 48 1020.8
20260507200034 47 295 9.6 17.4 0.00 0.46 0.06 48 1020.8
20260507194522 46 297 7.8 14.8 0.00 0.46 0.06 47 1021.0
20260507193020 46 317 6.1 14.8 0.00 0.46 0.06 49 1021.0
20260507191519 46 338 7.0 13.0 0.00 0.46 0.06 49 1021.0
20260507190020 46 309 4.3 10.4 0.00 0.48 0.06 50 1021.3
20260507184515 45 342 3.5 10.4 0.01 0.48 0.06 49 1021.3
20260507183029 45 322 3.5 9.6 0.01 0.48 0.06 50 1021.5
20260507181511 45 305 4.3 14.8 0.01 0.48 0.06 53 1021.5
20260507180009 44 291 5.2 15.6 0.02 0.49 0.06 55 1021.5
20260507174510 42 317 4.3 12.2 0.01 0.48 0.05 59 1021.4
20260507173006 43 320 4.3 18.2 0.03 0.48 0.05 59 1021.4
20260507171504 43 345 3.5 13.9 0.04 0.48 0.05 57 1021.5
20260507170002 43 26 0.9 10.4 0.04 0.47 0.04 53 1021.6
20260507164612 42 300 2.6 4.3 0.04 0.47 0.04 55 1021.6
20260507163056 41 298 1.7 4.3 0.02 0.45 0.02 54 1021.8
20260507161600 39 298 1.7 3.5 0.01 0.44 0.01 58 1021.9
20260507160049 36 298 0.9 3.5 0.00 0.43 0.00 63 1021.9
20260507154547 35 298 0.9 2.6 0.00 0.43 0.00 66 1022.4
20260507153047 33 298 0.0 3.5 0.00 0.43 0.00 69 1022.6
20260507151541 30 298 0.0 2.6 0.00 0.43 0.00 71 1022.9
20260507150032 29 298 0.0 2.6 0.00 0.43 0.00 74 1022.8
20260507144530 27 298 0.9 2.6 0.00 0.43 0.00 76 1022.8
20260507143023 24 298 0.0 0.0 0.00 0.43 0.00 80 1022.8
20260507141519 22 298 0.0 1.7 0.00 0.43 0.00 83 1022.9
20260507140018 20 298 0.0 2.6 0.00 0.43 0.00 83 1023.0
20260507134527 18 298 1.7 3.5 0.00 0.43 0.00 84 1022.9
20260507133013 17 298 0.0 1.7 0.00 0.43 0.00 84 1023.0
20260507131519 17 299 0.9 2.6 0.00 0.43 0.00 85 1022.9
20260507130011 15 299 2.6 4.3 0.00 0.43 0.00 85 1022.8
20260507124511 15 299 0.0 2.6 0.00 0.43 0.00 85 1022.6
20260507123018 14 299 0.9 3.5 0.00 0.43 0.00 85 1022.6
20260507121510 14 299 1.7 4.3 0.00 0.43 0.00 85 1022.7
20260507120008 14 299 0.0 2.6 0.00 0.43 0.00 85 1022.7
20260507114511 14 299 0.9 2.6 0.00 0.43 0.00 85 1022.7
20260507113006 14 299 0.0 2.6 0.00 0.43 0.00 85 1022.5
20260507111510 15 299 1.7 2.6 0.00 0.43 0.00 85 1022.2
20260507110002 15 299 0.9 2.6 0.00 0.43 0.00 85 1022.4
20260507104501 15 299 0.0 2.6 0.00 0.43 0.00 85 1022.5
20260507103059 15 299 0.0 2.6 0.00 0.43 0.00 84 1022.5
20260507101559 15 299 0.9 2.6 0.00 0.43 0.00 85 1022.7
20260507100054 16 299 0.0 1.7 0.00 0.43 0.00 85 1022.7
20260507094608 16 299 0.0 1.7 0.00 0.43 0.00 85 1022.8
20260507093058 16 299 0.0 1.7 0.00 0.43 0.00 85 1022.8
20260507091618 16 299 0.0 2.6 0.00 0.43 0.00 85 1022.7
20260507090100 16 299 0.0 2.6 0.00 0.43 0.00 85 1022.8
20260507084553 16 299 0.0 2.6 0.00 0.43 0.00 85 1022.8
20260507083046 16 299 1.7 3.5 0.00 0.43 0.00 85 1022.7
20260507081544 16 299 0.0 2.6 0.00 0.43 0.00 85 1022.8
20260507080041 16 299 0.0 2.6 0.00 0.43 0.00 85 1022.9
20260507074545 16 299 0.0 1.7 0.00 0.43 0.00 85 1023.0
20260507073037 16 299 0.0 1.7 0.00 0.43 0.00 85 1022.9
20260507071537 17 299 0.9 3.5 0.00 0.43 0.00 85 1022.9
20260507070036 17 299 1.7 3.5 0.00 0.43 0.00 85 1022.9
20260507064535 17 299 0.0 2.6 0.00 0.43 0.00 85 1023.0
20260507063029 18 299 0.0 0.9 0.00 0.43 0.00 85 1023.3
20260507061523 18 299 0.0 1.7 0.00 0.43 0.00 84 1023.3
20260507060025 19 299 0.0 2.6 0.00 0.43 0.43 85 1023.3
20260507054516 19 299 0.0 1.7 0.00 0.43 0.43 84 1023.1
20260507053014 20 299 0.0 1.7 0.00 0.43 0.43 83 1023.0
20260507051510 21 299 0.0 2.6 0.00 0.43 0.43 82 1022.9
20260507050010 21 299 0.9 1.7 0.00 0.43 0.43 82 1022.8
20260507044506 23 299 0.0 1.7 0.00 0.43 0.43 81 1022.8